WetterOnline ( https://www.wetteronline.de )

Wetter aktuell Heide

Aktuelles Wetter: Heide/Elpersbüttel (5m)

6-stündlich | Neueste Meldungen
Ortszeit Temperatur Wetter
So, 07.06. 2:00 9.8° C wolkenlos
Sa, 06.06. 20:00 12.0° C bewölkt
Sa, 06.06. 14:00 13.5° C leicht bewölkt
Sa, 06.06. 8:00 10.0° C leicht bewölkt
Sa, 06.06. 2:00 9.8° C bedeckt
Fr, 05.06. 20:00 10.6° C wolkig
Fr, 05.06. 14:00 15.0° C wolkig
Fr, 05.06. 8:00 9.9° C leichter Regen
Ortszeit Temperatur Wetter
So, 07.06. 2:30 10.3° C wolkenlos
So, 07.06. 2:20 10.3° C wolkenlos
So, 07.06. 2:10 10.1° C wolkenlos
So, 07.06. 2:00 9.8° C wolkenlos
So, 07.06. 1:50 9.8° C wolkenlos
So, 07.06. 1:40 9.4° C wolkenlos
So, 07.06. 1:30 9.6° C leicht bewölkt
So, 07.06. 1:00 10.1° C wolkig
So, 07.06. 0:30 10.4° C wolkig
So, 07.06. 0:00 10.6° C wolkig
Sa, 06.06. 23:30 10.4° C wolkig
Sa, 06.06. 23:00 10.4° C bedeckt
Ortszeit Relative Feuchte Sichtweite
So, 07.06. 2:00 83% 40 km
Sa, 06.06. 20:00 78% 50 km
Sa, 06.06. 14:00 58% 55 km
Sa, 06.06. 8:00 81% 40 km
Sa, 06.06. 2:00 82% 35 km
Fr, 05.06. 20:00 83% 65 km
Fr, 05.06. 14:00 49% >70 km
Fr, 05.06. 8:00 86% 40 km
Ortszeit Relative Feuchte Sichtweite
So, 07.06. 2:30 78% 45 km
So, 07.06. 2:20 78% -
So, 07.06. 2:10 81% -
So, 07.06. 2:00 83% 40 km
So, 07.06. 1:50 83% -
So, 07.06. 1:40 86% -
So, 07.06. 1:30 86% 35 km
So, 07.06. 1:00 86% 28 km
So, 07.06. 0:30 86% 30 km
So, 07.06. 0:00 85% 35 km
Sa, 06.06. 23:30 86% 35 km
Sa, 06.06. 23:00 87% 40 km
Ortszeit Niederschlagsmenge Niederschlagsart
So, 07.06. 2:00 0.0 l/m2 in 6 Std. -
Sa, 06.06. 20:00 0.6 l/m2 in 12 Std. Regen
Sa, 06.06. 14:00 0.1 l/m2 in 6 Std. Regen
Sa, 06.06. 8:00 3 l/m2 in 12 Std. Regen
Sa, 06.06. 2:00 3 l/m2 in 6 Std. Regen
Fr, 05.06. 20:00 5 l/m2 in 12 Std. Regen
Fr, 05.06. 14:00 0.3 l/m2 in 6 Std. Regen
Fr, 05.06. 8:00 0.8 l/m2 in 12 Std. Regen
Ortszeit Niederschlagsmenge Niederschlagsart
So, 07.06. 2:30 0.0 l/m2 in 1 Std. -
So, 07.06. 2:20 keine Meldung -
So, 07.06. 2:10 keine Meldung -
So, 07.06. 2:00 0.0 l/m2 in 1 Std. -
So, 07.06. 1:50 keine Meldung -
So, 07.06. 1:40 keine Meldung -
So, 07.06. 1:30 0.0 l/m2 in 1 Std. -
So, 07.06. 1:00 0.0 l/m2 in 1 Std. -
So, 07.06. 0:30 0.0 l/m2 in 1 Std. -
So, 07.06. 0:00 0.0 l/m2 in 1 Std. -
Sa, 06.06. 23:30 0.0 l/m2 in 1 Std. -
Sa, 06.06. 23:00 0.0 l/m2 in 1 Std. -
Ortszeit Stärke Spitze Richtung
km/h Bft. km/h Grad Sektor
So, 07.06. 2:00 11 2 18 150° SO
Sa, 06.06. 20:00 11 2 50 180° S
Sa, 06.06. 14:00 24 4 52 250° W
Sa, 06.06. 8:00 29 5 61 220° SW
Sa, 06.06. 2:00 28 4 61 260° W
Fr, 05.06. 20:00 17 3 52 180° S
Fr, 05.06. 14:00 20 4 46 180° S
Fr, 05.06. 8:00 28 4 44 230° SW
Ortszeit Stärke Spitze Richtung
km/h Bft. km/h Grad Sektor
So, 07.06. 2:30 14 3 22 160° S
So, 07.06. 2:20 14 3 - 160° S
So, 07.06. 2:10 11 2 - 160° S
So, 07.06. 2:00 11 2 18 150° SO
So, 07.06. 1:50 11 2 - 150° SO
So, 07.06. 1:40 7 2 - 140° SO
So, 07.06. 1:30 7 2 14 140° SO
So, 07.06. 1:00 9 2 17 130° SO
So, 07.06. 0:30 7 2 14 140° SO
So, 07.06. 0:00 9 2 15 140° SO
Sa, 06.06. 23:30 4 1 11 130° SO
Sa, 06.06. 23:00 4 1 7 90° O
Ortszeit Untergrenze Bedeckung Gattung
total tief tief mittel hoch
So, 07.06. 2:00 - 0/8 0/8 - - -
Sa, 06.06. 20:00 2400 m 7/8 7/8 - - -
Sa, 06.06. 14:00 1440 m 4/8 5/8 - - -
Sa, 06.06. 8:00 420 m 4/8 4/8 - - -
Sa, 06.06. 2:00 60 m 8/8 8/8 - - -
Fr, 05.06. 20:00 1350 m 8/8 3/8 - - -
Fr, 05.06. 14:00 1260 m 6/8 5/8 - - -
Fr, 05.06. 8:00 60 m 7/8 7/8 - - -
Ortszeit Bedeckungsgrad in Achtel und Wolkenuntergrenze
So, 07.06. 2:30 keine Wolken
So, 07.06. 2:20 keine Wolken
So, 07.06. 2:10 keine Wolken
So, 07.06. 2:00 keine Wolken
So, 07.06. 1:50 keine Wolken
So, 07.06. 1:40 keine Wolken
So, 07.06. 1:30 4(4500m) 4(5400m)
So, 07.06. 1:00 3(2100m) 8(4500m) 8(4800m)
So, 07.06. 0:30 4(1800m) 7(3300m) 7(3600m)
So, 07.06. 0:00 1(2100m) 8(3300m) 8(4200m)
Sa, 06.06. 23:30 2(2100m) 8(3000m) 8(4200m)
Sa, 06.06. 23:00 6(3000m) 8(4200m) 8(4200m)
Ortszeit Luftdruck NN (hPa) Tendenz (hPa in 3 Std.)
So, 07.06. 2:00 1001 - 0,3
Sa, 06.06. 20:00 1000 + 1,2
Sa, 06.06. 14:00 998 + 1,7
Sa, 06.06. 8:00 995 + 1,1
Sa, 06.06. 2:00 992 + 2,3
Fr, 05.06. 20:00 989 - 0,6
Fr, 05.06. 14:00 992 - 1,4
Fr, 05.06. 8:00 993 + 0,9
Ortszeit Luftdruck NN (hPa) Tendenz (hPa in 3 Std.)
So, 07.06. 2:30 1001 - 0,3
So, 07.06. 2:20 1001 keine Meldung
So, 07.06. 2:10 1001 keine Meldung
So, 07.06. 2:00 1001 - 0,3
So, 07.06. 1:50 1001 keine Meldung
So, 07.06. 1:40 1001 keine Meldung
So, 07.06. 1:30 1001 - 0,3
So, 07.06. 1:00 1001 - 0,2
So, 07.06. 0:30 1001 + 0,1
So, 07.06. 0:00 1001 + 0,3
Sa, 06.06. 23:30 1001 + 0,5
Sa, 06.06. 23:00 1001 + 0,6
Ortszeit Schneehöhe (cm)
So, 07.06. 2:00 -
Sa, 06.06. 20:00 -
Sa, 06.06. 14:00 -
Sa, 06.06. 8:00 -
Sa, 06.06. 2:00 -
Fr, 05.06. 20:00 -
Fr, 05.06. 14:00 -
Fr, 05.06. 8:00 -
Ortszeit Schneehöhe (cm)
So, 07.06. 2:30 -
So, 07.06. 2:20 -
So, 07.06. 2:10 -
So, 07.06. 2:00 -
So, 07.06. 1:50 -
So, 07.06. 1:40 -
So, 07.06. 1:30 -
So, 07.06. 1:00 -
So, 07.06. 0:30 -
So, 07.06. 0:00 -
Sa, 06.06. 23:30 -
Sa, 06.06. 23:00 -
Link zu dieser Seite / Seite empfehlen

Das Wetter in ...